createdAt,value
2022-09-27T00:01:49.700Z,3.55
2022-09-27T00:06:02.638Z,4.18
2022-09-27T00:10:05.874Z,3.92
2022-09-27T00:14:10.821Z,3.47
2022-09-27T00:18:13.573Z,3.83
2022-09-27T00:22:16.495Z,3.65
2022-09-27T00:26:20.359Z,3.70
2022-09-27T00:30:23.172Z,4.43
2022-09-27T00:34:26.269Z,2.85
2022-09-27T00:38:28.954Z,2.63
2022-09-27T00:42:31.693Z,2.78
2022-09-27T00:46:42.584Z,3.28
2022-09-27T00:50:50.667Z,3.20
2022-09-27T00:55:00.581Z,2.33
2022-09-27T00:59:21.034Z,3.10
2022-09-27T01:03:49.384Z,2.70
2022-09-27T01:07:56.645Z,2.67
2022-09-27T01:12:18.111Z,2.92
2022-09-27T01:16:43.261Z,2.88
2022-09-27T01:21:08.773Z,2.58
2022-09-27T01:25:12.108Z,2.63
2022-09-27T01:29:54.870Z,3.00
2022-09-27T01:34:25.760Z,2.50
2022-09-27T01:38:44.346Z,2.67
2022-09-27T01:42:55.270Z,6.80
2022-09-27T01:47:08.366Z,6.30
2022-09-27T01:51:52.950Z,4.40
2022-09-27T01:55:57.820Z,4.70
2022-09-27T02:00:23.469Z,5.50
2022-09-27T02:04:33.322Z,6.22
2022-09-27T02:08:55.484Z,5.68
2022-09-27T02:13:24.845Z,3.92
2022-09-27T02:18:06.339Z,3.42
2022-09-27T02:22:39.158Z,3.53
2022-09-27T02:26:46.331Z,3.20
2022-09-27T02:30:49.582Z,3.08
2022-09-27T02:35:01.471Z,2.75
2022-09-27T02:39:04.735Z,3.03
2022-09-27T02:43:09.032Z,3.08
2022-09-27T02:47:29.225Z,2.97
2022-09-27T02:51:58.678Z,4.20
2022-09-27T02:56:16.733Z,3.67
2022-09-27T03:00:34.303Z,3.20
2022-09-27T03:05:02.651Z,3.03
2022-09-27T03:09:05.593Z,3.10
2022-09-27T03:13:08.728Z,4.13
2022-09-27T03:17:12.052Z,3.60
2022-09-27T03:21:50.463Z,3.45
2022-09-27T03:25:53.596Z,3.08
2022-09-27T03:29:56.402Z,3.42
2022-09-27T03:33:59.533Z,3.58
2022-09-27T03:38:03.466Z,4.22
2022-09-27T03:42:06.443Z,3.90
2022-09-27T03:46:10.256Z,4.18
2022-09-27T03:50:14.492Z,3.67
2022-09-27T03:54:17.312Z,3.47
2022-09-27T03:58:20.021Z,3.20
2022-09-27T04:02:23.492Z,3.17
2022-09-27T04:06:44.593Z,2.28
2022-09-27T04:10:47.336Z,2.42
2022-09-27T04:14:50.139Z,2.50
2022-09-27T04:19:19.032Z,2.65
2022-09-27T04:23:37.666Z,3.80
2022-09-27T04:27:46.230Z,4.00
2022-09-27T04:31:50.054Z,3.85
2022-09-27T04:36:11.406Z,3.63
2022-09-27T04:40:17.327Z,3.72
2022-09-27T04:44:20.049Z,3.05
2022-09-27T04:48:26.612Z,2.33
2022-09-27T04:52:29.420Z,2.38
2022-09-27T04:56:32.060Z,2.40
2022-09-27T05:00:37.077Z,3.03
2022-09-27T05:05:00.003Z,3.20
2022-09-27T05:09:09.129Z,3.30
2022-09-27T05:13:26.196Z,2.53
2022-09-27T05:17:29.007Z,1.83
2022-09-27T05:21:50.851Z,5.28
2022-09-27T05:25:57.415Z,3.60
2022-09-27T05:30:03.168Z,4.25
2022-09-27T05:34:18.434Z,6.05
2022-09-27T05:42:39.934Z,4.85
2022-09-27T05:50:46.531Z,2.53
2022-09-27T05:54:49.276Z,4.00
2022-09-27T05:58:52.477Z,4.38
2022-09-27T06:03:06.483Z,7.43
2022-09-27T06:07:34.042Z,3.85
2022-09-27T06:11:43.051Z,2.58
2022-09-27T06:15:51.426Z,4.70
2022-09-27T06:19:54.674Z,6.05
2022-09-27T06:24:00.723Z,4.50
2022-09-27T06:28:08.106Z,3.70
2022-09-27T06:32:14.069Z,2.80
2022-09-27T06:36:38.245Z,3.08
2022-09-27T06:40:43.730Z,2.83
2022-09-27T06:45:03.308Z,2.60
2022-09-27T06:49:27.228Z,2.60
2022-09-27T06:53:30.158Z,3.97
2022-09-27T06:57:59.735Z,3.22
2022-09-27T07:02:05.631Z,3.08
2022-09-27T07:06:26.483Z,2.97
2022-09-27T07:10:37.769Z,3.38
2022-09-27T07:14:41.136Z,3.22
2022-09-27T07:18:50.154Z,3.65
2022-09-27T07:22:55.506Z,3.47
2022-09-27T07:27:00.977Z,3.67
2022-09-27T07:31:05.154Z,5.45
2022-09-27T07:35:12.198Z,4.60
2022-09-27T07:43:19.654Z,4.28
2022-09-27T07:47:27.634Z,3.33
2022-09-27T07:51:56.863Z,4.15
2022-09-27T07:56:27.898Z,5.68
2022-09-27T08:00:30.881Z,3.90
2022-09-27T08:04:34.119Z,4.13
2022-09-27T08:08:37.372Z,4.03
2022-09-27T08:12:41.237Z,3.67
2022-09-27T08:16:44.580Z,3.13
2022-09-27T08:20:51.206Z,3.42
2022-09-27T08:25:08.618Z,3.20
2022-09-27T08:29:12.738Z,3.83
2022-09-27T08:33:19.843Z,4.00
2022-09-27T08:37:23.190Z,4.82
2022-09-27T08:42:01.345Z,5.00
2022-09-27T08:46:10.477Z,4.50
2022-09-27T08:50:23.666Z,5.72
2022-09-27T08:54:31.543Z,4.38
2022-09-27T08:58:39.941Z,3.95
2022-09-27T09:02:52.249Z,4.43
2022-09-27T09:07:01.018Z,3.95
2022-09-27T09:11:35.443Z,3.33
2022-09-27T09:15:54.943Z,6.28
2022-09-27T09:20:42.586Z,5.50
2022-09-27T09:25:04.220Z,4.80
2022-09-27T09:29:13.350Z,4.47
2022-09-27T09:33:38.199Z,4.45
2022-09-27T09:37:58.067Z,3.88
2022-09-27T09:42:32.310Z,4.30
2022-09-27T09:46:45.934Z,3.70
2022-09-27T09:50:54.791Z,4.95
2022-09-27T09:55:18.736Z,7.10
2022-09-27T09:59:41.321Z,7.80
2022-09-27T10:03:45.205Z,6.75
2022-09-27T10:07:51.671Z,6.75
2022-09-27T10:16:11.240Z,7.80
2022-09-27T10:20:51.239Z,7.75
2022-09-27T10:24:58.348Z,7.00
2022-09-27T10:34:01.112Z,7.72
2022-09-27T10:38:27.045Z,7.28
2022-09-27T10:42:38.982Z,6.97
2022-09-27T10:46:50.900Z,6.57
2022-09-27T10:51:30.037Z,6.90
2022-09-27T10:55:37.143Z,6.38
2022-09-27T10:59:43.449Z,6.85
2022-09-27T11:03:50.501Z,7.07
2022-09-27T11:07:54.805Z,5.43
2022-09-27T11:12:14.627Z,4.60
2022-09-27T11:16:41.779Z,7.22
2022-09-27T11:21:01.195Z,7.70
2022-09-27T11:25:18.104Z,8.07
2022-09-27T11:29:56.343Z,8.75
2022-09-27T11:34:48.057Z,6.30
2022-09-27T11:39:25.049Z,4.57
2022-09-27T11:43:36.070Z,4.45
2022-09-27T11:47:57.412Z,3.28
2022-09-27T11:52:31.806Z,3.53
2022-09-27T11:56:52.268Z,4.13
2022-09-27T12:01:15.252Z,5.25
2022-09-27T12:05:21.870Z,3.35
2022-09-27T12:09:37.994Z,3.58
2022-09-27T12:13:54.548Z,3.47
2022-09-27T12:18:06.285Z,5.05
2022-09-27T12:22:22.746Z,3.10
2022-09-27T12:26:42.640Z,4.90
2022-09-27T12:31:11.058Z,4.75
2022-09-27T12:35:27.883Z,4.50
2022-09-27T12:39:51.639Z,6.63
2022-09-27T12:44:04.319Z,5.25
2022-09-27T12:48:45.482Z,6.07
2022-09-27T12:52:54.504Z,4.70
2022-09-27T12:57:06.298Z,5.13
2022-09-27T13:01:22.940Z,4.93
2022-09-27T13:05:39.173Z,3.92
2022-09-27T13:09:51.718Z,3.75
2022-09-27T13:13:57.271Z,3.50
2022-09-27T13:18:05.732Z,5.10
2022-09-27T13:22:27.711Z,4.80
2022-09-27T13:36:45.299Z,4.63
2022-09-27T13:40:52.214Z,4.95
2022-09-27T13:45:18.359Z,4.55
2022-09-27T13:54:40.813Z,6.03
2022-09-27T14:03:46.997Z,6.65
2022-09-27T14:21:22.397Z,8.52
2022-09-27T14:25:49.872Z,7.38
2022-09-27T14:30:03.385Z,7.47
2022-09-27T14:34:13.173Z,5.18
2022-09-27T14:38:39.463Z,5.15
2022-09-27T14:43:08.482Z,5.15
2022-09-27T14:51:42.468Z,7.22
2022-09-27T14:55:45.716Z,4.05
2022-09-27T14:59:48.605Z,2.97
2022-09-27T15:03:53.832Z,3.55
2022-09-27T15:07:59.522Z,3.45
2022-09-27T15:16:24.197Z,3.17
2022-09-27T15:20:35.369Z,2.97
2022-09-27T15:42:18.309Z,3.42
2022-09-27T15:46:43.812Z,3.20
2022-09-27T15:50:56.816Z,3.72
2022-09-27T16:29:58.364Z,6.53
2022-09-27T16:34:08.165Z,6.90
2022-09-27T16:42:27.860Z,6.25
2022-09-27T16:46:36.295Z,5.75
2022-09-27T16:50:57.693Z,6.30
2022-09-27T16:55:01.225Z,5.75
2022-09-27T16:59:07.092Z,5.32
2022-09-27T17:11:47.458Z,5.00
2022-09-27T17:20:27.999Z,4.45
2022-09-27T17:24:31.295Z,4.30
2022-09-27T17:28:43.383Z,4.47
2022-09-27T17:32:46.319Z,3.85
2022-09-27T17:36:51.817Z,4.93
2022-09-27T17:41:13.460Z,7.18
2022-09-27T17:45:17.004Z,3.30
2022-09-27T17:49:38.076Z,3.33
2022-09-27T17:53:41.316Z,3.30
2022-09-27T17:57:46.347Z,2.75
2022-09-27T18:01:51.461Z,5.85
2022-09-27T18:05:55.266Z,3.45
2022-09-27T18:10:02.606Z,3.40
2022-09-27T18:14:07.833Z,3.25
2022-09-27T18:18:11.985Z,3.25
2022-09-27T18:22:29.773Z,3.30
2022-09-27T18:26:40.483Z,3.22
2022-09-27T18:30:52.841Z,3.10
2022-09-27T18:34:57.796Z,2.75
2022-09-27T18:39:03.931Z,3.00
2022-09-27T18:43:13.872Z,2.70
2022-09-27T18:47:17.382Z,2.72
2022-09-27T18:51:34.520Z,2.63
2022-09-27T18:55:41.736Z,2.53
2022-09-27T18:59:52.199Z,2.20
2022-09-27T19:03:59.259Z,3.22
2022-09-27T19:08:02.240Z,2.80
2022-09-27T19:12:09.098Z,2.58
2022-09-27T19:25:23.049Z,2.75
2022-09-27T19:29:27.103Z,2.75
2022-09-27T19:33:46.793Z,2.15
2022-09-27T19:46:27.853Z,3.42
2022-09-27T19:59:15.297Z,3.03
2022-09-27T20:03:23.193Z,2.80
2022-09-27T20:07:27.930Z,3.13
2022-09-27T20:11:33.329Z,2.40
2022-09-27T20:15:39.360Z,2.03
2022-09-27T20:19:45.110Z,2.38
2022-09-27T20:23:56.769Z,2.40
2022-09-27T20:28:02.705Z,2.97
2022-09-27T20:36:36.430Z,2.58
2022-09-27T20:40:53.368Z,3.92
2022-09-27T20:44:58.060Z,2.63
2022-09-27T20:49:10.368Z,3.15
2022-09-27T20:53:13.804Z,2.42
2022-09-27T20:57:17.146Z,2.83
2022-09-27T21:01:22.772Z,3.40
2022-09-27T21:05:25.946Z,2.10
2022-09-27T21:09:29.978Z,2.50
2022-09-27T21:13:32.798Z,3.13
2022-09-27T21:17:36.266Z,2.72
2022-09-27T21:21:39.771Z,2.53
2022-09-27T21:25:45.640Z,3.20
2022-09-27T21:29:57.828Z,13.03
2022-09-27T21:34:04.152Z,2.67
2022-09-27T21:38:06.949Z,2.90
2022-09-27T21:42:10.130Z,2.85
2022-09-27T21:46:15.123Z,2.65
2022-09-27T21:50:17.915Z,2.83
2022-09-27T21:54:20.610Z,3.05
2022-09-27T21:58:23.650Z,3.03
2022-09-27T22:02:26.453Z,2.92
2022-09-27T22:06:34.776Z,2.97
2022-09-27T22:10:38.086Z,3.33
2022-09-27T22:14:42.293Z,3.55
2022-09-27T22:18:46.945Z,3.70
2022-09-27T22:22:51.910Z,2.67
2022-09-27T22:26:54.981Z,2.50
2022-09-27T22:31:03.602Z,2.97
2022-09-27T22:35:06.962Z,2.40
2022-09-27T22:39:10.106Z,3.03
2022-09-27T22:43:14.483Z,3.90
2022-09-27T22:47:17.380Z,2.92
2022-09-27T22:51:20.433Z,2.47
2022-09-27T22:55:23.272Z,2.28
2022-09-27T22:59:27.235Z,3.25
2022-09-27T23:03:31.759Z,4.38
2022-09-27T23:07:34.689Z,5.20
2022-09-27T23:11:42.383Z,5.75
2022-09-27T23:15:46.033Z,7.13
2022-09-27T23:19:48.814Z,5.30
2022-09-27T23:23:53.021Z,3.47
2022-09-27T23:28:00.848Z,3.40
2022-09-27T23:32:05.517Z,4.75
2022-09-27T23:36:11.473Z,6.47
2022-09-27T23:40:23.535Z,3.30
2022-09-27T23:44:27.535Z,5.50
2022-09-27T23:48:31.186Z,4.05
2022-09-27T23:52:34.507Z,3.85
2022-09-27T23:56:37.663Z,6.15
